createdAt,value
2022-12-12T00:01:22.407Z,10.70
2022-12-12T00:03:52.376Z,11.33
2022-12-12T00:06:21.090Z,11.17
2022-12-12T00:08:48.957Z,10.07
2022-12-12T00:11:17.251Z,12.63
2022-12-12T00:13:45.446Z,11.33
2022-12-12T00:16:13.946Z,13.70
2022-12-12T00:18:42.255Z,15.77
2022-12-12T00:21:15.267Z,10.83
2022-12-12T00:23:43.556Z,9.67
2022-12-12T00:26:16.890Z,8.17
2022-12-12T00:28:44.718Z,11.50
2022-12-12T00:31:12.757Z,8.87
2022-12-12T00:33:40.854Z,10.23
2022-12-12T00:36:09.239Z,11.40
2022-12-12T00:38:38.402Z,14.67
2022-12-12T00:41:07.121Z,13.37
2022-12-12T00:43:35.347Z,11.23
2022-12-12T00:46:03.492Z,8.63
2022-12-12T00:48:32.505Z,27.57
2022-12-12T00:51:07.534Z,9.00
2022-12-12T00:53:35.382Z,7.73
2022-12-12T00:56:05.205Z,6.87
2022-12-12T00:58:33.993Z,5.93
2022-12-12T01:01:06.343Z,6.40
2022-12-12T01:03:34.745Z,7.30
2022-12-12T01:06:03.084Z,6.17
2022-12-12T01:08:30.948Z,6.20
2022-12-12T01:10:59.087Z,6.10
2022-12-12T01:13:28.823Z,6.00
2022-12-12T01:15:56.768Z,5.97
2022-12-12T01:18:25.505Z,5.83
2022-12-12T01:20:53.718Z,5.43
2022-12-12T01:23:21.578Z,5.57
2022-12-12T01:25:49.543Z,5.53
2022-12-12T01:28:17.386Z,5.27
2022-12-12T01:30:46.638Z,4.90
2022-12-12T01:33:14.471Z,5.43
2022-12-12T01:35:42.371Z,5.87
2022-12-12T01:38:10.258Z,5.40
2022-12-12T01:40:38.203Z,6.27
2022-12-12T01:43:07.596Z,5.43
2022-12-12T01:46:26.576Z,6.83
2022-12-12T01:48:57.438Z,6.07
2022-12-12T01:51:27.586Z,6.40
2022-12-12T01:54:01.862Z,5.60
2022-12-12T01:56:30.149Z,6.10
2022-12-12T01:58:58.416Z,5.77
2022-12-12T02:01:27.744Z,5.23
2022-12-12T02:03:56.120Z,5.33
2022-12-12T02:06:27.182Z,6.43
2022-12-12T02:08:59.023Z,6.47
2022-12-12T02:11:28.508Z,7.10
2022-12-12T02:13:56.673Z,7.60
2022-12-12T02:16:49.396Z,7.23
2022-12-12T02:19:44.814Z,6.70
2022-12-12T02:22:25.963Z,7.27
2022-12-12T02:25:20.535Z,8.67
2022-12-12T02:28:15.964Z,7.43
2022-12-12T02:30:50.075Z,7.60
2022-12-12T02:33:37.812Z,8.33
2022-12-12T02:36:15.951Z,8.17
2022-12-12T02:38:54.044Z,6.97
2022-12-12T02:41:29.171Z,7.27
2022-12-12T02:44:07.371Z,7.57
2022-12-12T02:46:40.266Z,7.87
2022-12-12T02:49:15.022Z,8.73
2022-12-12T02:51:45.240Z,8.90
2022-12-12T02:54:19.347Z,8.47
2022-12-12T02:56:51.722Z,7.80
2022-12-12T02:59:25.175Z,8.20
2022-12-12T03:02:18.115Z,8.47
2022-12-12T03:05:20.799Z,8.50
2022-12-12T03:07:59.008Z,7.83
2022-12-12T03:10:42.639Z,8.47
2022-12-12T03:13:14.759Z,7.87
2022-12-12T03:15:54.205Z,7.63
2022-12-12T03:18:28.528Z,7.27
2022-12-12T03:21:04.471Z,7.17
2022-12-12T03:23:39.085Z,7.53
2022-12-12T03:26:14.954Z,7.67
2022-12-12T03:28:47.675Z,7.10
2022-12-12T03:31:18.624Z,6.80
2022-12-12T03:33:49.504Z,6.10
2022-12-12T03:36:24.490Z,7.67
2022-12-12T03:38:58.266Z,7.37
2022-12-12T03:41:29.618Z,7.10
2022-12-12T03:44:01.547Z,6.67
2022-12-12T03:46:33.476Z,7.07
2022-12-12T03:49:06.174Z,6.10
2022-12-12T03:51:40.298Z,5.57
2022-12-12T03:54:13.634Z,6.07
2022-12-12T03:56:48.416Z,5.93
2022-12-12T03:59:26.968Z,6.07
2022-12-12T04:02:00.350Z,5.23
2022-12-12T04:04:32.314Z,4.73
2022-12-12T04:07:04.688Z,6.00
2022-12-12T04:09:50.279Z,5.80
2022-12-12T04:12:40.256Z,5.37
2022-12-12T04:15:26.331Z,5.30
2022-12-12T04:18:09.695Z,6.27
2022-12-12T04:21:02.983Z,4.87
2022-12-12T04:23:38.200Z,4.83
2022-12-12T04:26:30.543Z,5.03
2022-12-12T04:29:07.855Z,5.60
2022-12-12T04:31:40.299Z,4.60
2022-12-12T04:34:14.323Z,6.63
2022-12-12T04:36:44.963Z,11.00
2022-12-12T04:39:18.099Z,8.77
2022-12-12T04:41:48.663Z,6.93
2022-12-12T04:44:18.377Z,5.80
2022-12-12T04:46:48.740Z,8.80
2022-12-12T04:49:20.200Z,7.63
2022-12-12T04:51:52.441Z,6.87
2022-12-12T04:54:27.314Z,13.30
2022-12-12T04:56:59.705Z,11.03
2022-12-12T04:59:28.110Z,10.70
2022-12-12T05:02:01.154Z,11.10
2022-12-12T05:04:32.157Z,9.67
2022-12-12T05:07:04.830Z,5.30
2022-12-12T05:09:34.947Z,5.73
2022-12-12T05:12:02.904Z,5.80
2022-12-12T05:14:31.634Z,6.00
2022-12-12T05:17:04.364Z,5.23
2022-12-12T05:19:32.292Z,4.87
2022-12-12T05:22:00.114Z,4.33
2022-12-12T05:24:30.732Z,5.27
2022-12-12T05:27:00.576Z,5.00
2022-12-12T05:29:28.418Z,4.77
2022-12-12T05:31:56.230Z,5.07
2022-12-12T05:34:24.108Z,7.43
2022-12-12T05:36:51.958Z,6.43
2022-12-12T05:39:19.804Z,6.77
2022-12-12T05:41:47.650Z,6.27
2022-12-12T05:44:16.866Z,6.90
2022-12-12T05:46:45.582Z,7.50
2022-12-12T05:49:13.420Z,6.30
2022-12-12T05:51:41.806Z,5.10
2022-12-12T05:54:09.643Z,4.67
2022-12-12T05:56:37.654Z,4.03
2022-12-12T05:59:05.559Z,4.13
2022-12-12T06:01:34.942Z,4.60
2022-12-12T06:04:03.419Z,5.17
2022-12-12T06:06:31.294Z,4.80
2022-12-12T06:08:59.159Z,4.97
2022-12-12T06:11:27.020Z,4.63
2022-12-12T06:13:54.844Z,4.33
2022-12-12T06:16:22.886Z,7.73
2022-12-12T06:18:56.315Z,5.10
2022-12-12T06:21:24.592Z,4.97
2022-12-12T06:23:52.458Z,5.77
2022-12-12T06:26:21.186Z,6.10
2022-12-12T06:28:49.977Z,23.83
2022-12-12T06:31:18.152Z,59.83
2022-12-12T06:33:46.338Z,32.03
2022-12-12T06:36:23.655Z,14.30
2022-12-12T06:38:51.967Z,15.10
2022-12-12T06:41:20.911Z,21.20
2022-12-12T06:43:48.783Z,26.50
2022-12-12T06:46:19.261Z,20.57
2022-12-12T06:48:47.426Z,16.47
2022-12-12T06:51:20.277Z,12.93
2022-12-12T06:53:48.444Z,15.60
2022-12-12T06:56:18.407Z,22.73
2022-12-12T06:58:46.575Z,13.00
2022-12-12T07:01:15.256Z,12.20
2022-12-12T07:03:43.387Z,9.53
2022-12-12T07:06:11.289Z,10.00
2022-12-12T07:08:40.535Z,13.17
2022-12-12T07:11:12.681Z,9.07
2022-12-12T07:13:40.903Z,9.23
2022-12-12T07:16:09.694Z,11.23
2022-12-12T07:18:37.882Z,9.07
2022-12-12T07:21:07.294Z,8.97
2022-12-12T07:23:35.345Z,8.57
2022-12-12T07:26:07.032Z,9.53
2022-12-12T07:28:34.846Z,8.90
2022-12-12T07:31:06.562Z,11.57
2022-12-12T07:33:43.243Z,11.07
2022-12-12T07:36:12.360Z,9.80
2022-12-12T07:38:40.529Z,10.93
2022-12-12T07:41:11.537Z,9.37
2022-12-12T07:43:43.861Z,10.27
2022-12-12T07:46:15.784Z,9.27
2022-12-12T07:48:44.609Z,9.03
2022-12-12T07:51:12.638Z,11.20
2022-12-12T07:53:40.619Z,10.93
2022-12-12T07:56:12.065Z,9.07
2022-12-12T07:58:39.911Z,9.47
2022-12-12T08:01:14.978Z,11.57
2022-12-12T08:03:43.468Z,12.00
2022-12-12T08:06:11.467Z,9.90
2022-12-12T08:08:39.678Z,9.67
2022-12-12T08:11:11.555Z,6.50
2022-12-12T08:13:40.086Z,5.20
2022-12-12T08:16:12.941Z,5.23
2022-12-12T08:18:40.810Z,6.23
2022-12-12T08:21:09.418Z,5.40
2022-12-12T08:23:37.334Z,8.13
2022-12-12T08:26:06.730Z,12.70
2022-12-12T08:28:36.658Z,12.20
2022-12-12T08:31:05.033Z,10.83
2022-12-12T08:33:32.908Z,8.93
2022-12-12T08:36:00.926Z,18.43
2022-12-12T08:38:30.319Z,19.07
2022-12-12T08:40:58.176Z,17.83
2022-12-12T08:43:25.985Z,17.93
2022-12-12T08:46:00.418Z,12.20
2022-12-12T08:48:28.302Z,14.30
2022-12-12T08:50:56.105Z,20.60
2022-12-12T08:53:24.047Z,27.10
2022-12-12T08:55:51.982Z,8.50
2022-12-12T08:58:19.812Z,7.30
2022-12-12T09:00:47.660Z,7.97
2022-12-12T09:03:16.878Z,7.60
2022-12-12T09:05:45.334Z,8.10
2022-12-12T09:08:13.764Z,6.97
2022-12-12T09:10:42.839Z,8.27
2022-12-12T09:13:11.329Z,8.03
2022-12-12T09:15:39.206Z,9.03
2022-12-12T09:18:07.218Z,7.10
2022-12-12T09:20:36.424Z,7.77
2022-12-12T09:23:04.627Z,8.17
2022-12-12T09:25:32.457Z,7.60
2022-12-12T09:28:00.290Z,6.90
2022-12-12T09:30:28.137Z,6.50
2022-12-12T09:32:55.948Z,6.07
2022-12-12T09:35:23.775Z,7.33
2022-12-12T09:37:54.507Z,6.87
2022-12-12T09:40:29.481Z,6.93
2022-12-12T09:42:57.620Z,7.23
2022-12-12T09:45:25.522Z,9.07
2022-12-12T09:47:57.382Z,8.20
2022-12-12T09:50:30.716Z,8.40
2022-12-12T09:53:03.904Z,7.93
2022-12-12T09:55:39.418Z,8.57
2022-12-12T09:58:17.294Z,7.70
2022-12-12T10:00:53.151Z,8.77
2022-12-12T10:03:31.013Z,7.73
2022-12-12T10:06:35.993Z,7.83
2022-12-12T10:09:07.033Z,8.43
2022-12-12T10:11:54.814Z,5.93
2022-12-12T10:14:28.914Z,6.50
2022-12-12T10:16:58.682Z,7.83
2022-12-12T10:19:30.190Z,10.67
2022-12-12T10:22:02.172Z,6.90
2022-12-12T10:24:38.461Z,8.53
2022-12-12T10:27:12.403Z,7.67
2022-12-12T10:29:47.069Z,7.47
2022-12-12T10:32:26.060Z,8.37
2022-12-12T10:35:03.719Z,7.70
2022-12-12T10:37:43.882Z,7.60
2022-12-12T10:40:30.588Z,7.67
2022-12-12T10:43:03.375Z,6.83
2022-12-12T10:45:52.373Z,6.37
2022-12-12T10:48:20.335Z,7.40
2022-12-12T10:50:52.150Z,7.47
2022-12-12T10:53:21.922Z,6.70
2022-12-12T10:55:54.703Z,6.67
2022-12-12T10:58:26.369Z,6.43
2022-12-12T11:01:02.280Z,6.97
2022-12-12T11:03:36.476Z,7.10
2022-12-12T11:06:08.024Z,6.00
2022-12-12T11:08:37.484Z,6.87
2022-12-12T11:11:19.917Z,7.27
2022-12-12T11:13:52.560Z,7.20
2022-12-12T11:16:24.111Z,7.17
2022-12-12T11:19:01.328Z,7.37
2022-12-12T11:21:30.200Z,7.67
2022-12-12T11:24:01.194Z,6.17
2022-12-12T11:26:30.391Z,7.43
2022-12-12T11:29:01.332Z,7.50
2022-12-12T11:31:32.108Z,6.90
2022-12-12T11:34:02.514Z,6.83
2022-12-12T11:36:34.420Z,7.80
2022-12-12T11:39:13.273Z,5.97
2022-12-12T11:42:01.483Z,7.43
2022-12-12T11:44:35.167Z,6.50
2022-12-12T11:47:24.575Z,7.67
2022-12-12T11:49:54.229Z,7.43
2022-12-12T11:52:24.454Z,6.93
2022-12-12T11:54:52.771Z,6.77
2022-12-12T11:57:43.641Z,7.50
2022-12-12T12:00:16.295Z,7.23
2022-12-12T12:03:08.619Z,7.10
2022-12-12T12:05:47.980Z,7.13
2022-12-12T12:08:30.003Z,7.10
2022-12-12T12:11:07.871Z,8.17
2022-12-12T12:13:54.470Z,6.27
2022-12-12T12:16:30.895Z,7.87
2022-12-12T12:19:08.720Z,7.00
2022-12-12T12:21:48.364Z,7.17
2022-12-12T12:24:53.883Z,6.87
2022-12-12T12:27:28.783Z,7.17
2022-12-12T12:30:22.994Z,6.60
2022-12-12T12:33:10.007Z,8.37
2022-12-12T12:35:49.977Z,6.43
2022-12-12T12:38:27.431Z,7.37
2022-12-12T12:41:16.153Z,6.47
2022-12-12T12:43:58.885Z,7.77
2022-12-12T12:46:38.344Z,6.60
2022-12-12T12:49:13.696Z,6.47
2022-12-12T12:51:50.340Z,7.00
2022-12-12T12:54:24.045Z,7.30
2022-12-12T12:56:59.802Z,7.03
2022-12-12T12:59:34.749Z,7.20
2022-12-12T13:02:13.887Z,6.87
2022-12-12T13:04:45.128Z,6.67
2022-12-12T13:07:17.740Z,6.60
2022-12-12T13:09:52.624Z,7.47
2022-12-12T13:12:28.445Z,7.37
2022-12-12T13:14:59.969Z,6.77
2022-12-12T13:17:42.280Z,6.93
2022-12-12T13:20:16.870Z,7.20
2022-12-12T13:22:56.411Z,5.90
2022-12-12T13:25:34.403Z,6.53
2022-12-12T13:28:07.119Z,6.47
2022-12-12T13:30:48.519Z,6.07
2022-12-12T13:33:33.806Z,5.83
2022-12-12T13:36:10.612Z,6.43
2022-12-12T13:38:39.366Z,6.60
2022-12-12T13:41:09.887Z,6.10
2022-12-12T13:43:48.756Z,5.80
2022-12-12T13:46:37.375Z,6.67
2022-12-12T13:49:26.100Z,6.63
2022-12-12T13:52:13.961Z,7.10
2022-12-12T13:54:46.610Z,6.00
2022-12-12T13:57:22.367Z,6.60
2022-12-12T14:00:28.829Z,7.53
2022-12-12T14:03:03.253Z,7.93
2022-12-12T14:05:35.856Z,7.30
2022-12-12T14:08:08.094Z,7.20
2022-12-12T14:10:38.163Z,6.53
2022-12-12T14:13:26.532Z,8.00
2022-12-12T14:16:04.873Z,8.03
2022-12-12T14:18:38.435Z,6.63
2022-12-12T14:21:10.523Z,5.57
2022-12-12T14:23:42.137Z,6.57
2022-12-12T14:26:43.605Z,6.70
2022-12-12T14:29:30.332Z,5.67
2022-12-12T14:32:26.518Z,7.07
2022-12-12T14:35:07.140Z,8.53
2022-12-12T14:37:51.415Z,8.73
2022-12-12T14:40:22.784Z,13.20
2022-12-12T14:43:19.207Z,12.57
2022-12-12T14:45:55.317Z,10.27
2022-12-12T14:48:25.150Z,8.33
2022-12-12T14:51:03.635Z,7.27
2022-12-12T14:53:40.307Z,6.57
2022-12-12T14:56:11.508Z,7.50
2022-12-12T14:58:43.019Z,7.87
2022-12-12T15:01:11.748Z,7.17
2022-12-12T15:03:44.015Z,9.23
2022-12-12T15:06:33.927Z,10.40
2022-12-12T15:09:15.973Z,11.40
2022-12-12T15:11:44.792Z,11.83
2022-12-12T15:14:25.514Z,12.97
2022-12-12T15:17:00.220Z,11.73
2022-12-12T15:19:32.148Z,11.70
2022-12-12T15:22:00.564Z,9.87
2022-12-12T15:24:37.643Z,8.23
2022-12-12T15:27:07.033Z,7.23
2022-12-12T15:29:36.279Z,9.73
2022-12-12T15:32:07.761Z,14.93
2022-12-12T15:34:39.554Z,13.00
2022-12-12T15:37:20.944Z,11.17
2022-12-12T15:40:19.462Z,10.80
2022-12-12T15:42:51.973Z,7.90
2022-12-12T15:45:24.507Z,7.83
2022-12-12T15:47:54.278Z,9.87
2022-12-12T15:50:25.699Z,8.57
2022-12-12T15:53:08.832Z,8.90
2022-12-12T15:55:38.092Z,8.23
2022-12-12T15:58:05.959Z,6.27
2022-12-12T16:00:37.559Z,5.40
2022-12-12T16:03:21.944Z,6.20
2022-12-12T16:06:03.020Z,5.33
2022-12-12T16:08:47.099Z,5.23
2022-12-12T16:11:42.130Z,4.77
2022-12-12T16:14:38.597Z,5.63
2022-12-12T16:17:13.029Z,4.50
2022-12-12T16:19:45.421Z,5.13
2022-12-12T16:22:31.494Z,5.53
2022-12-12T16:25:12.836Z,6.13
2022-12-12T16:27:42.036Z,5.93
2022-12-12T16:30:12.876Z,6.00
2022-12-12T16:32:41.474Z,5.10
2022-12-12T16:35:15.045Z,6.10
2022-12-12T16:37:43.345Z,7.43
2022-12-12T16:40:15.453Z,7.37
2022-12-12T16:42:46.443Z,6.80
2022-12-12T16:45:14.318Z,7.10
2022-12-12T16:47:42.179Z,7.90
2022-12-12T16:50:13.859Z,8.03
2022-12-12T16:52:42.023Z,10.13
2022-12-12T16:55:17.254Z,9.87
2022-12-12T16:57:46.460Z,10.43
2022-12-12T17:00:15.939Z,7.90
2022-12-12T17:02:44.269Z,8.47
2022-12-12T17:05:16.660Z,8.70
2022-12-12T17:07:44.546Z,6.97
2022-12-12T17:10:13.582Z,8.87
2022-12-12T17:12:41.691Z,11.40
2022-12-12T17:15:17.529Z,10.77
2022-12-12T17:17:45.384Z,7.97
2022-12-12T17:20:13.686Z,9.27
2022-12-12T17:22:41.743Z,10.47
2022-12-12T17:25:10.102Z,11.63
2022-12-12T17:27:39.726Z,11.80
2022-12-12T17:30:09.462Z,11.70
2022-12-12T17:32:39.123Z,12.50
2022-12-12T17:35:08.400Z,14.60
2022-12-12T17:37:38.289Z,16.20
2022-12-12T17:40:09.163Z,15.17
2022-12-12T17:42:37.148Z,14.17
2022-12-12T17:45:05.704Z,10.50
2022-12-12T17:47:33.566Z,8.70
2022-12-12T17:50:02.734Z,11.47
2022-12-12T17:52:30.572Z,10.50
2022-12-12T17:55:51.685Z,9.70
2022-12-12T17:57:46.199Z,9.23
2022-12-12T18:00:15.192Z,7.60
2022-12-12T18:02:43.764Z,6.37
2022-12-12T18:05:13.019Z,7.17
2022-12-12T18:07:40.877Z,6.57
2022-12-12T18:10:09.163Z,8.37
2022-12-12T18:12:36.991Z,8.87
2022-12-12T18:15:05.336Z,7.57
2022-12-12T18:17:33.160Z,9.87
2022-12-12T18:20:00.979Z,7.10
2022-12-12T18:22:30.144Z,11.23
2022-12-12T18:24:57.978Z,11.23
2022-12-12T18:27:25.817Z,13.70
2022-12-12T18:29:53.644Z,16.37
2022-12-12T18:32:21.483Z,15.33
2022-12-12T18:34:49.307Z,15.43
2022-12-12T18:37:17.152Z,14.43
2022-12-12T18:39:46.294Z,12.97
2022-12-12T18:42:14.157Z,15.30
2022-12-12T18:44:42.066Z,16.43
2022-12-12T18:47:10.134Z,18.67
2022-12-12T18:49:37.945Z,15.27
2022-12-12T18:52:05.996Z,14.20
2022-12-12T18:54:34.166Z,11.23
2022-12-12T18:57:03.387Z,20.03
2022-12-12T18:59:31.895Z,14.43
2022-12-12T19:01:59.776Z,15.07
2022-12-12T19:04:27.623Z,13.60
2022-12-12T19:06:55.563Z,21.87
2022-12-12T19:09:23.435Z,19.67
2022-12-12T19:11:54.438Z,10.23
2022-12-12T19:14:40.501Z,9.87
2022-12-12T19:17:14.031Z,7.40
2022-12-12T19:19:41.862Z,7.13
2022-12-12T19:22:39.932Z,6.57
2022-12-12T19:24:57.463Z,7.37
2022-12-12T19:27:25.304Z,6.67
2022-12-12T19:29:54.475Z,10.30
2022-12-12T19:32:23.351Z,9.20
2022-12-12T19:34:51.150Z,10.40
2022-12-12T19:37:18.961Z,11.13
2022-12-12T19:39:46.844Z,12.60
2022-12-12T19:42:14.945Z,26.03
2022-12-12T19:44:43.719Z,31.40
2022-12-12T19:47:13.324Z,13.70
2022-12-12T19:49:41.144Z,11.93
2022-12-12T19:52:13.895Z,6.80
2022-12-12T19:54:42.251Z,12.43
2022-12-12T19:57:10.129Z,12.23
2022-12-12T19:59:38.052Z,12.53
2022-12-12T20:02:07.073Z,13.43
2022-12-12T20:04:36.384Z,10.10
2022-12-12T20:07:04.242Z,17.53
2022-12-12T20:09:32.396Z,12.00
2022-12-12T20:12:01.681Z,10.40
2022-12-12T20:14:31.118Z,14.77
2022-12-12T20:17:00.235Z,7.17
2022-12-12T20:19:28.980Z,8.77
2022-12-12T20:22:01.656Z,8.40
2022-12-12T20:24:31.366Z,12.20
2022-12-12T20:27:00.326Z,10.83
2022-12-12T20:29:28.710Z,8.70
2022-12-12T20:31:57.007Z,9.60
2022-12-12T20:34:25.413Z,3.57
2022-12-12T20:36:55.628Z,3.70
2022-12-12T20:39:26.014Z,10.13
2022-12-12T20:41:54.701Z,8.37
2022-12-12T20:44:24.044Z,12.27
2022-12-12T20:46:52.185Z,11.80
2022-12-12T20:49:23.868Z,7.50
2022-12-12T20:51:56.848Z,8.83
2022-12-12T20:54:28.031Z,9.60
2022-12-12T20:56:57.177Z,9.97
2022-12-12T20:59:25.511Z,10.10
2022-12-12T21:01:53.590Z,8.50
2022-12-12T21:04:22.012Z,9.50
2022-12-12T21:06:51.347Z,11.33
2022-12-12T21:09:24.980Z,11.33
2022-12-12T21:11:56.179Z,9.60
2022-12-12T21:14:24.253Z,10.80
2022-12-12T21:16:52.417Z,9.27
2022-12-12T21:19:21.091Z,8.70
2022-12-12T21:21:48.939Z,10.90
2022-12-12T21:24:18.083Z,9.47
2022-12-12T21:26:46.610Z,8.03
2022-12-12T21:29:16.435Z,8.80
2022-12-12T21:31:50.998Z,10.37
2022-12-12T21:34:20.263Z,9.33
2022-12-12T21:36:51.202Z,12.70
2022-12-12T21:39:19.133Z,10.73
2022-12-12T21:41:47.288Z,12.67
2022-12-12T21:44:16.476Z,7.03
2022-12-12T21:46:44.397Z,11.43
2022-12-12T21:49:26.302Z,7.37
2022-12-12T21:51:56.282Z,7.53
2022-12-12T21:54:24.572Z,8.97
2022-12-12T21:56:52.666Z,8.73
2022-12-12T21:59:21.871Z,9.87
2022-12-12T22:01:49.749Z,10.00
2022-12-12T22:04:17.656Z,11.70
2022-12-12T22:06:46.851Z,9.50
2022-12-12T22:09:14.885Z,9.50
2022-12-12T22:11:50.093Z,9.53
2022-12-12T22:14:22.404Z,9.63
2022-12-12T22:16:50.525Z,8.70
2022-12-12T22:19:18.785Z,10.10
2022-12-12T22:21:48.159Z,9.73
2022-12-12T22:24:16.227Z,10.47
2022-12-12T22:26:46.536Z,9.13
2022-12-12T22:29:16.168Z,9.47
2022-12-12T22:31:46.177Z,9.77
2022-12-12T22:34:16.586Z,10.57
2022-12-12T22:36:45.715Z,9.87
2022-12-12T22:39:16.113Z,10.50
2022-12-12T22:41:44.237Z,8.83
2022-12-12T22:44:16.065Z,10.13
2022-12-12T22:46:46.088Z,9.67
2022-12-12T22:49:19.302Z,9.23
2022-12-12T22:51:47.648Z,9.57
2022-12-12T22:54:16.013Z,11.17
2022-12-12T22:56:44.523Z,10.90
2022-12-12T22:59:13.806Z,10.37
2022-12-12T23:01:42.412Z,11.23
2022-12-12T23:04:13.921Z,10.97
2022-12-12T23:06:42.625Z,10.60
2022-12-12T23:09:15.238Z,10.63
2022-12-12T23:11:44.182Z,9.60
2022-12-12T23:14:15.219Z,8.17
2022-12-12T23:16:44.082Z,8.97
2022-12-12T23:19:15.872Z,7.50
2022-12-12T23:21:43.805Z,7.67
2022-12-12T23:24:12.339Z,7.93
2022-12-12T23:26:40.885Z,8.60
2022-12-12T23:29:10.056Z,6.73
2022-12-12T23:31:38.941Z,8.77
2022-12-12T23:34:09.206Z,7.93
2022-12-12T23:36:38.927Z,7.17
2022-12-12T23:39:08.885Z,7.80
2022-12-12T23:41:37.097Z,8.03
2022-12-12T23:44:06.232Z,7.97
2022-12-12T23:46:36.008Z,8.00
2022-12-12T23:49:07.076Z,7.17
2022-12-12T23:51:37.080Z,8.30
2022-12-12T23:54:08.476Z,8.73
2022-12-12T23:56:36.650Z,8.93
2022-12-12T23:59:05.240Z,8.50
